Time,TemperatureF,DewpointF,PressureIn,WindDirection,WindDirectionDegrees,WindSpeedMPH,WindSpeedGustMPH,Humidity,HourlyPrecipIn,Conditions,Clouds,dailyrainin,SoftwareType,DateUTC
2013-06-03 00:03:00,54.0,52.0,30.04,NE,41,0.0,0.0,94,0.00,,,0.01,,2013-06-03 04:03:00,
2013-06-03 00:12:00,54.0,52.0,30.04,NE,41,0.0,0.0,94,0.00,,,0.01,,2013-06-03 04:12:00,
2013-06-03 00:23:00,54.0,52.0,30.04,NNE,25,2.0,6.0,93,0.00,,,0.01,,2013-06-03 04:23:00,
2013-06-03 00:33:00,54.0,52.0,30.04,North,353,0.0,8.0,92,0.00,,,0.01,,2013-06-03 04:33:00,
2013-06-03 00:42:00,54.0,52.0,30.04,North,353,0.0,8.0,92,0.00,,,0.01,,2013-06-03 04:42:00,
2013-06-03 00:53:00,54.0,51.0,30.04,NE,37,7.0,10.0,90,0.00,,,0.01,,2013-06-03 04:53:00,
2013-06-03 01:02:00,54.0,51.0,30.04,NNE,18,3.0,6.0,89,0.00,,,0.01,,2013-06-03 05:02:00,
2013-06-03 01:12:00,54.0,51.0,30.04,NNE,23,0.0,0.0,90,0.00,,,0.01,,2013-06-03 05:12:00,
2013-06-03 01:22:00,54.0,51.0,30.04,NNE,23,0.0,0.0,90,0.00,,,0.01,,2013-06-03 05:22:00,
2013-06-03 01:32:00,54.0,51.0,30.04,NE,39,6.0,9.0,89,0.00,,,0.01,,2013-06-03 05:32:00,
2013-06-03 01:42:00,54.0,51.0,30.04,NE,39,6.0,9.0,89,0.00,,,0.01,,2013-06-03 05:42:00,
2013-06-03 01:52:00,54.0,51.0,30.04,NNE,31,5.0,8.0,88,0.00,,,0.01,,2013-06-03 05:52:00,
2013-06-03 02:02:00,53.0,50.0,30.04,NE,44,1.0,3.0,88,0.00,,,0.01,,2013-06-03 06:02:00,
2013-06-03 02:12:00,53.0,50.0,30.04,NE,44,1.0,3.0,88,0.00,,,0.01,,2013-06-03 06:12:00,
2013-06-03 02:22:00,53.0,49.0,30.04,North,1,1.0,0.0,87,0.00,,,0.01,,2013-06-03 06:22:00,
2013-06-03 02:32:00,52.0,48.0,30.04,North,0,1.0,0.0,87,0.00,,,0.01,,2013-06-03 06:32:00,
2013-06-03 02:42:00,52.0,48.0,30.04,North,0,1.0,0.0,87,0.00,,,0.01,,2013-06-03 06:42:00,
2013-06-03 02:52:00,52.0,48.0,30.04,NNE,15,1.0,7.0,87,0.00,,,0.01,,2013-06-03 06:52:00,
2013-06-03 03:02:00,51.0,48.0,30.04,North,0,1.0,5.0,88,0.00,,,0.01,,2013-06-03 07:02:00,
2013-06-03 03:12:00,51.0,48.0,30.04,North,0,1.0,5.0,88,0.00,,,0.01,,2013-06-03 07:12:00,
2013-06-03 03:22:00,51.0,48.0,30.03,NNE,24,5.0,7.0,90,0.00,,,0.01,,2013-06-03 07:22:00,
2013-06-03 03:32:00,50.0,48.0,30.03,North,8,5.0,8.0,92,0.00,,,0.01,,2013-06-03 07:32:00,
2013-06-03 03:42:00,50.0,48.0,30.03,North,8,5.0,8.0,92,0.00,,,0.01,,2013-06-03 07:42:00,
2013-06-03 03:52:00,50.0,48.0,30.03,NNE,17,1.0,0.0,93,0.00,,,0.01,,2013-06-03 07:52:00,
2013-06-03 04:02:00,49.0,47.0,30.03,NNE,20,2.0,6.0,94,0.00,,,0.01,,2013-06-03 08:02:00,
2013-06-03 04:12:00,49.0,47.0,30.03,NNE,20,2.0,6.0,94,0.00,,,0.01,,2013-06-03 08:12:00,
2013-06-03 04:22:00,49.0,48.0,30.03,NE,39,3.0,8.0,95,0.00,,,0.01,,2013-06-03 08:22:00,
2013-06-03 04:32:00,49.0,48.0,30.03,NE,55,1.0,5.0,95,0.00,,,0.01,,2013-06-03 08:32:00,
2013-06-03 04:42:00,49.0,48.0,30.03,NE,55,1.0,5.0,95,0.00,,,0.01,,2013-06-03 08:42:00,
2013-06-03 04:52:00,48.0,47.0,30.03,NNE,23,2.0,8.0,95,0.00,,,0.01,,2013-06-03 08:52:00,
2013-06-03 05:02:00,48.0,47.0,30.03,NNE,32,0.0,0.0,96,0.00,,,0.01,,2013-06-03 09:02:00,
2013-06-03 05:12:00,48.0,47.0,30.03,NNE,32,0.0,0.0,96,0.00,,,0.01,,2013-06-03 09:12:00,
2013-06-03 05:22:00,48.0,47.0,30.03,NE,51,1.0,0.0,96,0.00,,,0.01,,2013-06-03 09:22:00,
2013-06-03 05:33:00,48.0,47.0,30.03,NE,45,1.0,7.0,96,0.00,,,0.01,,2013-06-03 09:33:00,
2013-06-03 05:42:00,48.0,47.0,30.03,NE,45,1.0,7.0,96,0.00,,,0.01,,2013-06-03 09:42:00,
2013-06-03 05:53:00,47.0,46.0,30.03,NE,41,2.0,3.0,97,0.00,,,0.01,,2013-06-03 09:53:00,
2013-06-03 06:03:00,47.0,46.0,30.03,NNE,32,3.0,6.0,98,0.00,,,0.01,,2013-06-03 10:03:00,
2013-06-03 06:12:00,47.0,46.0,30.04,NE,43,5.0,7.0,98,0.00,,,0.00,,2013-06-03 10:12:00,
2013-06-03 06:22:00,47.0,46.0,30.04,NE,43,5.0,7.0,98,0.00,,,0.00,,2013-06-03 10:22:00,
2013-06-03 06:33:00,47.0,46.0,30.04,NNE,20,0.0,0.0,98,0.00,,,0.00,,2013-06-03 10:33:00,
2013-06-03 06:42:00,47.0,46.0,30.04,NNE,20,0.0,0.0,98,0.00,,,0.00,,2013-06-03 10:42:00,
2013-06-03 06:52:00,47.0,47.0,30.05,NE,47,0.0,0.0,99,0.00,,,0.00,,2013-06-03 10:52:00,
2013-06-03 07:02:00,47.0,47.0,30.06,North,11,1.0,7.0,99,0.00,,,0.00,,2013-06-03 11:02:00,
2013-06-03 07:12:00,47.0,47.0,30.06,North,11,1.0,7.0,99,0.00,,,0.00,,2013-06-03 11:12:00,
2013-06-03 07:22:00,47.0,47.0,30.06,NNE,25,0.0,6.0,99,0.00,,,0.00,,2013-06-03 11:22:00,
2013-06-03 07:32:00,47.0,47.0,30.07,NNE,17,2.0,8.0,99,0.00,,,0.00,,2013-06-03 11:32:00,
2013-06-03 07:42:00,47.0,47.0,30.07,NNE,17,2.0,8.0,99,0.00,,,0.00,,2013-06-03 11:42:00,
2013-06-03 07:52:00,48.0,48.0,30.08,NNE,23,1.0,5.0,99,0.00,,,0.00,,2013-06-03 11:52:00,
2013-06-03 08:02:00,48.0,47.0,30.08,NE,34,1.0,0.0,98,0.00,,,0.00,,2013-06-03 12:02:00,
2013-06-03 08:12:00,48.0,47.0,30.08,NE,34,1.0,0.0,98,0.00,,,0.00,,2013-06-03 12:12:00,
2013-06-03 08:22:00,49.0,48.0,30.08,NE,48,1.0,3.0,98,0.00,,,0.00,,2013-06-03 12:22:00,
2013-06-03 08:32:00,50.0,49.0,30.08,ENE,76,2.0,2.0,97,0.00,,,0.00,,2013-06-03 12:32:00,
2013-06-03 08:42:00,50.0,49.0,30.08,ENE,76,2.0,2.0,97,0.00,,,0.00,,2013-06-03 12:42:00,
2013-06-03 08:52:00,51.0,49.0,30.08,NNE,31,5.0,7.0,94,0.00,,,0.00,,2013-06-03 12:52:00,
2013-06-03 09:02:00,52.0,50.0,30.09,East,92,2.0,5.0,94,0.00,,,0.00,,2013-06-03 13:02:00,
2013-06-03 09:12:00,52.0,50.0,30.09,East,92,2.0,5.0,94,0.00,,,0.00,,2013-06-03 13:12:00,
2013-06-03 09:22:00,54.0,51.0,30.09,ENE,76,0.0,0.0,91,0.00,,,0.00,,2013-06-03 13:22:00,
2013-06-03 09:32:00,55.0,52.0,30.09,NE,42,5.0,7.0,89,0.00,,,0.00,,2013-06-03 13:32:00,
2013-06-03 09:42:00,55.0,52.0,30.09,NE,42,5.0,7.0,89,0.00,,,0.00,,2013-06-03 13:42:00,
2013-06-03 09:53:00,56.0,52.0,30.09,NE,55,0.0,0.0,86,0.00,,,0.00,,2013-06-03 13:53:00,
2013-06-03 10:02:00,57.0,53.0,30.10,NNW,343,0.0,0.0,85,0.00,,,0.00,,2013-06-03 14:02:00,
2013-06-03 10:12:00,57.0,53.0,30.10,NNW,343,0.0,0.0,85,0.00,,,0.00,,2013-06-03 14:12:00,
2013-06-03 10:22:00,58.0,53.0,30.11,NNE,22,5.0,6.0,82,0.00,,,0.00,,2013-06-03 14:22:00,
2013-06-03 10:32:00,59.0,54.0,30.11,NE,38,2.0,6.0,82,0.00,,,0.00,,2013-06-03 14:32:00,
2013-06-03 10:42:00,59.0,54.0,30.11,NE,38,2.0,6.0,82,0.00,,,0.00,,2013-06-03 14:42:00,
2013-06-03 10:52:00,60.0,54.0,30.11,ENE,66,0.0,0.0,80,0.00,,,0.00,,2013-06-03 14:52:00,
2013-06-03 11:02:00,61.0,53.0,30.11,NNE,31,0.0,0.0,76,0.00,,,0.00,,2013-06-03 15:02:00,
2013-06-03 11:12:00,61.0,53.0,30.11,NNE,31,0.0,0.0,76,0.00,,,0.00,,2013-06-03 15:12:00,
2013-06-03 11:22:00,61.0,53.0,30.11,NW,322,0.0,0.0,75,0.00,,,0.00,,2013-06-03 15:22:00,
2013-06-03 11:33:00,61.0,52.0,30.11,NE,45,0.0,0.0,73,0.00,,,0.00,,2013-06-03 15:33:00,
2013-06-03 11:43:00,61.0,52.0,30.11,NE,45,0.0,0.0,73,0.00,,,0.00,,2013-06-03 15:43:00,
2013-06-03 11:53:00,62.0,53.0,30.11,North,0,1.0,6.0,72,0.00,,,0.00,,2013-06-03 15:53:00,
2013-06-03 12:03:00,63.0,53.0,30.11,NNE,31,5.0,6.0,70,0.00,,,0.00,,2013-06-03 16:03:00,
2013-06-03 12:12:00,63.0,51.0,30.11,SE,133,0.0,0.0,64,0.00,,,0.00,,2013-06-03 16:12:00,
2013-06-03 12:23:00,63.0,51.0,30.11,SE,133,0.0,0.0,64,0.00,,,0.00,,2013-06-03 16:23:00,
2013-06-03 12:33:00,63.0,51.0,30.10,East,90,0.0,0.0,65,0.00,,,0.00,,2013-06-03 16:33:00,
2013-06-03 12:42:00,64.0,53.0,30.11,ENE,77,0.0,7.0,67,0.00,,,0.00,,2013-06-03 16:42:00,
2013-06-03 12:53:00,64.0,53.0,30.11,ENE,77,0.0,7.0,67,0.00,,,0.00,,2013-06-03 16:53:00,
2013-06-03 13:02:00,65.0,51.0,30.10,ESE,103,1.0,8.0,60,0.00,,,0.00,,2013-06-03 17:02:00,
2013-06-03 13:12:00,65.0,51.0,30.10,ESE,103,1.0,8.0,60,0.00,,,0.00,,2013-06-03 17:12:00,
2013-06-03 13:22:00,64.0,50.0,30.09,ENE,78,1.0,6.0,61,0.00,,,0.00,,2013-06-03 17:22:00,
2013-06-03 13:33:00,64.0,50.0,30.08,East,79,3.0,9.0,60,0.00,,,0.00,,2013-06-03 17:33:00,
2013-06-03 13:42:00,64.0,50.0,30.08,NE,46,7.0,9.0,60,0.00,,,0.00,,2013-06-03 17:42:00,
2013-06-03 13:52:00,64.0,50.0,30.08,NE,46,7.0,9.0,60,0.00,,,0.00,,2013-06-03 17:52:00,
2013-06-03 14:02:00,64.0,50.0,30.08,East,99,0.0,0.0,60,0.00,,,0.00,,2013-06-03 18:02:00,
2013-06-03 14:12:00,64.0,50.0,30.07,SE,142,6.0,10.0,61,0.00,,,0.00,,2013-06-03 18:12:00,
2013-06-03 14:22:00,64.0,50.0,30.07,SE,142,6.0,10.0,61,0.00,,,0.00,,2013-06-03 18:22:00,
2013-06-03 14:32:00,64.0,50.0,30.06,ENE,75,5.0,12.0,60,0.00,,,0.00,,2013-06-03 18:32:00,
2013-06-03 14:42:00,64.0,50.0,30.06,ENE,75,5.0,12.0,60,0.00,,,0.00,,2013-06-03 18:42:00,
2013-06-03 14:52:00,65.0,49.0,30.06,SE,127,6.0,9.0,56,0.00,,,0.00,,2013-06-03 18:52:00,
2013-06-03 15:03:00,65.0,48.0,30.06,ENE,61,0.0,0.0,55,0.00,,,0.00,,2013-06-03 19:03:00,
2013-06-03 15:12:00,65.0,48.0,30.06,ENE,61,0.0,0.0,55,0.00,,,0.00,,2013-06-03 19:12:00,
2013-06-03 15:22:00,65.0,48.0,30.05,ESE,106,0.0,0.0,54,0.00,,,0.00,,2013-06-03 19:22:00,
2013-06-03 15:32:00,65.0,46.0,30.05,ESE,104,3.0,5.0,51,0.00,,,0.00,,2013-06-03 19:32:00,
2013-06-03 15:42:00,65.0,46.0,30.05,ESE,104,3.0,5.0,51,0.00,,,0.00,,2013-06-03 19:42:00,
2013-06-03 15:52:00,65.0,46.0,30.05,East,86,5.0,7.0,51,0.00,,,0.00,,2013-06-03 19:52:00,
2013-06-03 16:02:00,65.0,46.0,30.05,ENE,71,5.0,6.0,51,0.00,,,0.00,,2013-06-03 20:02:00,
2013-06-03 16:12:00,65.0,46.0,30.05,ENE,71,5.0,6.0,51,0.00,,,0.00,,2013-06-03 20:12:00,
2013-06-03 16:22:00,66.0,46.0,30.04,ENE,76,1.0,10.0,49,0.00,,,0.00,,2013-06-03 20:22:00,
2013-06-03 16:32:00,66.0,46.0,30.04,East,86,5.0,8.0,49,0.00,,,0.00,,2013-06-03 20:32:00,
2013-06-03 16:42:00,66.0,46.0,30.04,East,86,5.0,8.0,49,0.00,,,0.00,,2013-06-03 20:42:00,
2013-06-03 16:52:00,66.0,46.0,30.04,NE,48,0.0,7.0,48,0.00,,,0.00,,2013-06-03 20:52:00,
2013-06-03 17:02:00,66.0,46.0,30.04,NE,35,0.0,0.0,48,0.00,,,0.00,,2013-06-03 21:02:00,
2013-06-03 17:12:00,66.0,46.0,30.04,ENE,78,3.0,6.0,49,0.00,,,0.00,,2013-06-03 21:12:00,
2013-06-03 17:22:00,66.0,46.0,30.04,ENE,78,3.0,6.0,49,0.00,,,0.00,,2013-06-03 21:22:00,
2013-06-03 17:33:00,67.0,47.0,30.04,NE,45,0.0,0.0,49,0.00,,,0.00,,2013-06-03 21:33:00,
2013-06-03 17:43:00,67.0,47.0,30.04,NE,45,0.0,0.0,49,0.00,,,0.00,,2013-06-03 21:43:00,
2013-06-03 17:53:00,67.0,46.0,30.03,NE,45,0.0,0.0,47,0.00,,,0.00,,2013-06-03 21:53:00,
2013-06-03 18:03:00,67.0,47.0,30.03,NNE,26,3.0,6.0,48,0.00,,,0.00,,2013-06-03 22:03:00,
2013-06-03 18:12:00,67.0,47.0,30.03,NNE,26,3.0,6.0,48,0.00,,,0.00,,2013-06-03 22:12:00,
2013-06-03 18:22:00,67.0,47.0,30.03,NNW,343,0.0,0.0,48,0.00,,,0.00,,2013-06-03 22:22:00,
2013-06-03 18:32:00,67.0,47.0,30.03,NE,52,3.0,9.0,49,0.00,,,0.00,,2013-06-03 22:32:00,
2013-06-03 18:42:00,67.0,47.0,30.03,NE,52,3.0,9.0,49,0.00,,,0.00,,2013-06-03 22:42:00,
2013-06-03 18:53:00,67.0,47.0,30.03,North,4,0.0,0.0,48,0.00,,,0.00,,2013-06-03 22:53:00,
2013-06-03 19:02:00,67.0,47.0,30.03,NE,55,0.0,0.0,49,0.00,,,0.00,,2013-06-03 23:02:00,
2013-06-03 19:12:00,67.0,47.0,30.03,NE,55,0.0,0.0,49,0.00,,,0.00,,2013-06-03 23:12:00,
2013-06-03 19:22:00,67.0,47.0,30.03,NNE,13,0.0,6.0,49,0.00,,,0.00,,2013-06-03 23:22:00,
2013-06-03 19:32:00,66.0,46.0,30.03,ENE,58,2.0,6.0,49,0.00,,,0.00,,2013-06-03 23:32:00,
2013-06-03 19:42:00,66.0,46.0,30.03,ENE,58,2.0,6.0,49,0.00,,,0.00,,2013-06-03 23:42:00,
2013-06-03 19:52:00,66.0,48.0,30.04,North,10,0.0,0.0,52,0.00,,,0.00,,2013-06-03 23:52:00,
2013-06-03 20:02:00,66.0,47.0,30.04,NE,42,2.0,6.0,50,0.00,,,0.00,,2013-06-04 00:02:00,
2013-06-03 20:12:00,66.0,47.0,30.04,NE,42,2.0,6.0,50,0.00,,,0.00,,2013-06-04 00:12:00,
2013-06-03 20:22:00,65.0,47.0,30.05,NE,38,0.0,0.0,52,0.00,,,0.00,,2013-06-04 00:22:00,
2013-06-03 20:32:00,65.0,48.0,30.05,NE,42,0.0,0.0,54,0.00,,,0.00,,2013-06-04 00:32:00,
2013-06-03 20:42:00,65.0,48.0,30.05,NE,42,0.0,0.0,54,0.00,,,0.00,,2013-06-04 00:42:00,
2013-06-03 20:52:00,65.0,49.0,30.05,NE,49,0.0,0.0,57,0.00,,,0.00,,2013-06-04 00:52:00,
2013-06-03 21:02:00,64.0,49.0,30.05,NE,55,0.0,0.0,58,0.00,,,0.00,,2013-06-04 01:02:00,
2013-06-03 21:12:00,64.0,49.0,30.05,NE,55,0.0,0.0,58,0.00,,,0.00,,2013-06-04 01:12:00,
2013-06-03 21:22:00,63.0,49.0,30.05,NE,52,0.0,0.0,61,0.00,,,0.00,,2013-06-04 01:22:00,
2013-06-03 21:32:00,63.0,51.0,30.05,NE,52,0.0,0.0,65,0.00,,,0.00,,2013-06-04 01:32:00,
2013-06-03 21:42:00,63.0,51.0,30.05,NE,52,0.0,0.0,65,0.00,,,0.00,,2013-06-04 01:42:00,
2013-06-03 21:52:00,61.0,51.0,30.06,NE,52,0.0,0.0,69,0.00,,,0.00,,2013-06-04 01:52:00,
2013-06-03 22:02:00,60.0,51.0,30.06,NE,52,0.0,0.0,72,0.00,,,0.00,,2013-06-04 02:02:00,
2013-06-03 22:12:00,60.0,51.0,30.06,NE,52,0.0,0.0,72,0.00,,,0.00,,2013-06-04 02:12:00,
2013-06-03 22:22:00,60.0,52.0,30.07,NE,52,0.0,0.0,75,0.00,,,0.00,,2013-06-04 02:22:00,
2013-06-03 22:32:00,58.0,52.0,30.08,NE,52,0.0,0.0,80,0.00,,,0.00,,2013-06-04 02:32:00,
2013-06-03 22:42:00,58.0,52.0,30.08,NE,52,0.0,0.0,80,0.00,,,0.00,,2013-06-04 02:42:00,
2013-06-03 22:52:00,57.0,52.0,30.08,NE,52,0.0,0.0,83,0.00,,,0.00,,2013-06-04 02:52:00,
2013-06-03 23:02:00,56.0,52.0,30.09,NE,52,0.0,0.0,86,0.00,,,0.00,,2013-06-04 03:02:00,
2013-06-03 23:12:00,56.0,52.0,30.09,NE,52,0.0,0.0,86,0.00,,,0.00,,2013-06-04 03:12:00,
2013-06-03 23:22:00,56.0,52.0,30.09,NE,52,0.0,0.0,87,0.00,,,0.00,,2013-06-04 03:22:00,
2013-06-03 23:32:00,55.0,52.0,30.09,NE,52,0.0,0.0,91,0.00,,,0.00,,2013-06-04 03:32:00,
2013-06-03 23:43:00,55.0,52.0,30.09,NE,52,0.0,0.0,91,0.00,,,0.00,,2013-06-04 03:43:00,
2013-06-03 23:53:00,55.0,52.0,30.09,NE,52,0.0,0.0,91,0.00,,,0.00,,2013-06-04 03:53:00,